createdAt,value
2022-08-26T00:02:07.089Z,65.19
2022-08-26T00:04:35.002Z,64.48
2022-08-26T00:07:04.402Z,64.43
2022-08-26T00:09:37.278Z,65.02
2022-08-26T00:12:07.705Z,66.23
2022-08-26T00:14:37.319Z,67.07
2022-08-26T00:17:05.325Z,62.41
2022-08-26T00:19:36.546Z,59.92
2022-08-26T00:22:06.010Z,58.89
2022-08-26T00:24:34.012Z,57.30
2022-08-26T00:27:01.880Z,57.50
2022-08-26T00:29:32.006Z,57.14
2022-08-26T00:32:04.060Z,57.31
2022-08-26T00:34:32.018Z,58.29
2022-08-26T00:36:59.860Z,58.53
2022-08-26T00:39:29.079Z,59.23
2022-08-26T00:41:57.231Z,60.23
2022-08-26T00:44:25.028Z,61.13
2022-08-26T00:46:59.360Z,61.71
2022-08-26T00:49:35.524Z,63.04
2022-08-26T00:52:06.344Z,64.07
2022-08-26T00:54:46.655Z,65.22
2022-08-26T00:57:17.614Z,66.31
2022-08-26T00:59:47.723Z,67.44
2022-08-26T01:02:20.712Z,69.06
2022-08-26T01:04:55.631Z,70.03
2022-08-26T01:07:27.565Z,71.88
2022-08-26T01:10:01.906Z,73.05
2022-08-26T01:12:38.825Z,74.03
2022-08-26T01:15:09.726Z,75.71
2022-08-26T01:17:38.803Z,76.56
2022-08-26T01:20:13.357Z,78.04
2022-08-26T01:22:53.612Z,78.90
2022-08-26T01:25:23.283Z,79.26
2022-08-26T01:27:52.406Z,80.11
2022-08-26T01:30:21.157Z,81.06
2022-08-26T01:32:51.520Z,82.04
2022-08-26T01:35:20.259Z,83.02
2022-08-26T01:37:52.231Z,83.50
2022-08-26T01:40:27.495Z,84.30
2022-08-26T01:42:56.353Z,85.18
2022-08-26T01:45:27.329Z,86.13
2022-08-26T01:47:57.919Z,87.30
2022-08-26T01:50:30.631Z,87.19
2022-08-26T01:53:03.423Z,88.79
2022-08-26T01:55:34.049Z,89.61
2022-08-26T01:58:06.175Z,90.07
2022-08-26T02:00:35.564Z,90.13
2022-08-26T02:03:17.866Z,91.13
2022-08-26T02:05:47.439Z,91.86
2022-08-26T02:08:24.688Z,92.50
2022-08-26T02:10:54.623Z,92.83
2022-08-26T02:13:23.795Z,93.18
2022-08-26T02:15:53.158Z,93.57
2022-08-26T02:18:22.408Z,94.18
2022-08-26T02:20:51.727Z,94.76
2022-08-26T02:23:21.053Z,94.74
2022-08-26T02:25:56.982Z,95.38
2022-08-26T02:28:28.352Z,95.44
2022-08-26T02:30:56.510Z,96.10
2022-08-26T02:33:24.580Z,96.84
2022-08-26T02:35:52.856Z,97.10
2022-08-26T02:38:23.359Z,97.52
2022-08-26T02:40:51.504Z,97.42
2022-08-26T02:43:19.425Z,97.50
2022-08-26T02:46:01.688Z,97.61
2022-08-26T02:48:29.903Z,97.86
2022-08-26T02:50:59.769Z,97.90
2022-08-26T02:53:31.750Z,98.15
2022-08-26T02:56:00.038Z,98.50
2022-08-26T02:58:27.843Z,98.74
2022-08-26T03:00:55.976Z,98.98
2022-08-26T03:03:23.897Z,98.88
2022-08-26T03:05:51.825Z,99.26
2022-08-26T03:08:19.979Z,99.18
2022-08-26T03:10:49.432Z,99.76
2022-08-26T03:13:18.115Z,99.78
2022-08-26T03:15:46.014Z,100.00
2022-08-26T03:18:16.172Z,100.00
2022-08-26T03:20:44.103Z,100.00
2022-08-26T03:23:12.557Z,100.00
2022-08-26T03:25:40.537Z,100.00
2022-08-26T03:28:09.867Z,100.00
2022-08-26T03:30:39.939Z,100.00
2022-08-26T03:33:14.691Z,100.00
2022-08-26T03:35:45.100Z,100.00
2022-08-26T03:38:12.973Z,100.00
2022-08-26T03:40:42.487Z,100.00
2022-08-26T03:43:13.709Z,100.00
2022-08-26T03:45:41.880Z,100.00
2022-08-26T03:48:11.314Z,100.00
2022-08-26T03:50:40.067Z,100.00
2022-08-26T03:53:13.221Z,100.00
2022-08-26T03:55:43.109Z,100.00
2022-08-26T03:58:12.473Z,100.00
2022-08-26T04:00:40.542Z,100.00
2022-08-26T04:03:12.155Z,100.00
2022-08-26T04:05:43.475Z,100.00
2022-08-26T04:08:12.690Z,100.00
2022-08-26T04:10:40.640Z,100.00
2022-08-26T04:13:08.522Z,100.00
2022-08-26T04:15:39.256Z,100.00
2022-08-26T04:18:07.219Z,100.00
2022-08-26T04:20:35.058Z,100.00
2022-08-26T04:23:02.842Z,100.00
2022-08-26T04:25:33.575Z,100.00
2022-08-26T04:28:03.812Z,100.00
2022-08-26T04:30:32.261Z,100.00
2022-08-26T04:33:04.545Z,100.00
2022-08-26T04:35:43.155Z,100.00
2022-08-26T04:38:11.434Z,100.00
2022-08-26T04:40:46.878Z,100.00
2022-08-26T04:43:15.361Z,100.00
2022-08-26T04:45:43.950Z,100.00
2022-08-26T04:48:13.336Z,100.00
2022-08-26T04:50:44.665Z,100.00
2022-08-26T04:53:17.132Z,100.00
2022-08-26T04:55:45.289Z,100.00
2022-08-26T04:58:17.120Z,100.00
2022-08-26T05:00:45.451Z,100.00
2022-08-26T05:03:14.574Z,100.00
2022-08-26T05:05:43.326Z,100.00
2022-08-26T05:08:12.349Z,100.00
2022-08-26T05:10:41.968Z,100.00
2022-08-26T05:13:15.133Z,100.00
2022-08-26T05:15:44.052Z,100.00
2022-08-26T05:18:13.763Z,100.00
2022-08-26T05:20:46.450Z,100.00
2022-08-26T05:23:15.327Z,100.00
2022-08-26T05:25:46.659Z,100.00
2022-08-26T05:28:16.279Z,100.00
2022-08-26T05:30:44.798Z,100.00
2022-08-26T05:33:13.968Z,100.00
2022-08-26T05:35:44.379Z,100.00
2022-08-26T05:38:15.823Z,100.00
2022-08-26T05:40:46.535Z,100.00
2022-08-26T05:43:15.193Z,100.00
2022-08-26T05:45:45.832Z,100.00
2022-08-26T05:48:13.984Z,100.00
2022-08-26T05:50:45.795Z,100.00
2022-08-26T05:53:17.431Z,100.00
2022-08-26T05:55:49.170Z,100.00
2022-08-26T05:58:20.031Z,100.00
2022-08-26T06:00:57.472Z,100.00
2022-08-26T06:03:25.448Z,100.00
2022-08-26T06:05:54.645Z,100.00
2022-08-26T06:08:22.752Z,100.00
2022-08-26T06:10:53.703Z,100.00
2022-08-26T06:13:23.763Z,100.00
2022-08-26T06:15:52.651Z,100.00
2022-08-26T06:18:22.478Z,100.00
2022-08-26T06:20:57.654Z,100.00
2022-08-26T06:23:46.721Z,100.00
2022-08-26T06:26:15.911Z,100.00
2022-08-26T06:28:45.542Z,99.78
2022-08-26T06:31:14.369Z,99.85
2022-08-26T06:33:42.447Z,99.13
2022-08-26T06:36:10.315Z,99.70
2022-08-26T06:38:39.628Z,99.74
2022-08-26T06:41:10.647Z,99.08
2022-08-26T06:43:39.445Z,99.58
2022-08-26T06:46:08.867Z,99.57
2022-08-26T06:48:37.396Z,99.45
2022-08-26T06:51:08.977Z,99.20
2022-08-26T06:53:37.841Z,100.00
2022-08-26T06:56:12.139Z,99.08
2022-08-26T06:58:41.044Z,98.82
2022-08-26T07:01:17.137Z,98.49
2022-08-26T07:03:46.764Z,98.98
2022-08-26T07:06:15.019Z,98.90
2022-08-26T07:08:44.372Z,98.74
2022-08-26T07:11:14.775Z,98.49
2022-08-26T07:13:42.852Z,97.69
2022-08-26T07:16:13.552Z,97.87
2022-08-26T07:18:44.786Z,97.97
2022-08-26T07:21:15.429Z,97.63
2022-08-26T07:23:43.431Z,97.67
2022-08-26T07:26:16.176Z,97.54
2022-08-26T07:28:44.459Z,97.59
2022-08-26T07:31:14.640Z,97.27
2022-08-26T07:33:43.469Z,97.26
2022-08-26T07:36:13.629Z,98.09
2022-08-26T07:38:41.789Z,97.06
2022-08-26T07:41:10.215Z,97.69
2022-08-26T07:43:39.400Z,97.58
2022-08-26T07:46:11.305Z,97.29
2022-08-26T07:48:46.133Z,97.29
2022-08-26T07:51:14.915Z,97.36
2022-08-26T07:53:42.888Z,97.61
2022-08-26T07:56:11.231Z,97.07
2022-08-26T07:58:40.735Z,97.24
2022-08-26T08:01:10.543Z,96.65
2022-08-26T08:03:38.748Z,97.62
2022-08-26T08:06:07.080Z,96.53
2022-08-26T08:08:37.800Z,96.95
2022-08-26T08:11:05.930Z,96.67
2022-08-26T08:13:33.819Z,96.44
2022-08-26T08:16:03.235Z,96.88
2022-08-26T08:18:31.076Z,97.09
2022-08-26T08:21:21.199Z,97.04
2022-08-26T08:23:49.740Z,96.52
2022-08-26T08:26:17.499Z,96.79
2022-08-26T08:28:48.033Z,96.76
2022-08-26T08:31:45.151Z,96.45
2022-08-26T08:34:10.657Z,96.36
2022-08-26T08:36:38.506Z,96.72
2022-08-26T08:39:06.598Z,95.77
2022-08-26T08:41:58.011Z,96.16
2022-08-26T08:47:06.875Z,96.34
2022-08-26T08:49:35.719Z,95.99
2022-08-26T08:52:07.960Z,96.08
2022-08-26T08:54:35.827Z,97.44
2022-08-26T08:57:11.434Z,97.47
2022-08-26T08:59:47.563Z,96.80
2022-08-26T09:02:23.915Z,96.03
2022-08-26T09:05:02.323Z,95.44
2022-08-26T09:07:36.752Z,95.79
2022-08-26T09:10:18.212Z,95.71
2022-08-26T09:12:48.604Z,95.55
2022-08-26T09:15:21.446Z,95.78
2022-08-26T09:18:01.998Z,95.26
2022-08-26T09:20:41.602Z,94.98
2022-08-26T09:23:14.309Z,93.91
2022-08-26T09:25:48.009Z,93.90
2022-08-26T09:28:19.207Z,92.19
2022-08-26T09:30:48.706Z,91.91
2022-08-26T09:33:19.447Z,91.61
2022-08-26T09:35:48.832Z,90.98
2022-08-26T09:38:26.731Z,90.42
2022-08-26T09:40:59.160Z,89.76
2022-08-26T09:43:28.503Z,89.48
2022-08-26T09:46:15.178Z,89.67
2022-08-26T09:48:44.408Z,88.65
2022-08-26T09:51:29.139Z,89.03
2022-08-26T09:53:59.416Z,88.71
2022-08-26T09:56:30.048Z,88.67
2022-08-26T09:58:59.235Z,88.77
2022-08-26T10:01:32.146Z,88.07
2022-08-26T10:04:11.142Z,87.37
2022-08-26T10:06:42.478Z,87.70
2022-08-26T10:09:14.609Z,87.98
2022-08-26T10:11:47.645Z,88.04
2022-08-26T10:14:22.073Z,88.82
2022-08-26T10:16:55.108Z,88.12
2022-08-26T10:19:55.916Z,86.85
2022-08-26T10:22:25.727Z,87.65
2022-08-26T10:25:00.260Z,87.83
2022-08-26T10:27:40.499Z,87.50
2022-08-26T10:30:22.825Z,87.27
2022-08-26T10:32:54.444Z,87.09
2022-08-26T10:35:24.373Z,86.67
2022-08-26T10:37:56.397Z,86.68
2022-08-26T10:40:28.862Z,86.52
2022-08-26T10:43:07.218Z,87.42
2022-08-26T10:45:40.255Z,87.25
2022-08-26T10:48:13.646Z,86.50
2022-08-26T10:50:47.559Z,86.17
2022-08-26T10:53:19.026Z,85.62
2022-08-26T10:56:02.316Z,85.62
2022-08-26T10:58:55.955Z,84.32
2022-08-26T11:01:43.593Z,84.24
2022-08-26T11:04:24.231Z,83.22
2022-08-26T11:07:31.670Z,82.97
2022-08-26T11:10:02.160Z,83.52
2022-08-26T11:12:53.342Z,81.83
2022-08-26T11:16:08.484Z,81.06
2022-08-26T11:18:46.411Z,81.83
2022-08-26T11:21:50.846Z,81.35
2022-08-26T11:25:01.354Z,82.03
2022-08-26T11:28:08.258Z,81.82
2022-08-26T11:30:47.688Z,82.52
2022-08-26T11:33:48.715Z,81.70
2022-08-26T11:36:38.490Z,81.57
2022-08-26T11:39:18.875Z,81.69
2022-08-26T11:41:52.630Z,82.42
2022-08-26T11:44:23.302Z,81.94
2022-08-26T11:47:01.128Z,81.49
2022-08-26T11:49:31.472Z,82.32
2022-08-26T11:52:18.560Z,81.86
2022-08-26T11:55:02.424Z,82.83
2022-08-26T11:57:34.904Z,82.17
2022-08-26T12:00:07.263Z,82.73
2022-08-26T12:02:36.390Z,81.45
2022-08-26T12:05:04.707Z,81.31
2022-08-26T12:07:33.321Z,81.76
2022-08-26T12:10:04.883Z,80.64
2022-08-26T12:12:38.560Z,78.87
2022-08-26T12:15:10.619Z,78.36
2022-08-26T12:17:39.566Z,77.48
2022-08-26T12:20:48.566Z,76.96
2022-08-26T12:23:38.267Z,77.74
2022-08-26T12:26:10.411Z,76.08
2022-08-26T12:28:48.975Z,76.20
2022-08-26T12:31:23.942Z,76.37
2022-08-26T12:33:53.944Z,75.66
2022-08-26T12:36:27.419Z,75.58
2022-08-26T12:39:07.977Z,76.97
2022-08-26T12:41:46.495Z,77.18
2022-08-26T12:44:39.810Z,76.45
2022-08-26T12:47:13.845Z,77.28
2022-08-26T12:49:48.279Z,78.59
2022-08-26T12:52:33.437Z,77.80
2022-08-26T12:55:05.066Z,78.53
2022-08-26T12:57:36.257Z,78.78
2022-08-26T13:00:34.585Z,76.62
2022-08-26T13:03:05.748Z,76.70
2022-08-26T13:05:37.871Z,76.89
2022-08-26T13:08:14.447Z,76.80
2022-08-26T13:10:50.456Z,76.29
2022-08-26T13:13:18.234Z,76.11
2022-08-26T13:15:49.009Z,75.69
2022-08-26T13:18:18.922Z,75.59
2022-08-26T13:20:47.050Z,75.14
2022-08-26T13:23:17.474Z,73.58
2022-08-26T13:25:48.144Z,76.46
2022-08-26T13:28:17.418Z,78.23
2022-08-26T13:30:54.062Z,79.51
2022-08-26T13:33:22.885Z,79.33
2022-08-26T13:35:50.800Z,80.05
2022-08-26T13:38:25.157Z,80.08
2022-08-26T13:41:02.637Z,80.24
2022-08-26T13:43:31.239Z,80.77
2022-08-26T13:46:03.023Z,80.84
2022-08-26T13:48:31.391Z,82.09
2022-08-26T13:51:01.480Z,81.76
2022-08-26T13:53:31.451Z,81.83
2022-08-26T13:56:00.078Z,81.80
2022-08-26T13:58:28.738Z,82.01
2022-08-26T14:00:57.882Z,82.00
2022-08-26T14:03:27.149Z,81.68
2022-08-26T14:05:55.185Z,81.77
2022-08-26T14:08:23.276Z,81.90
2022-08-26T14:10:51.164Z,82.22
2022-08-26T14:13:19.768Z,82.64
2022-08-26T14:15:47.912Z,83.06
2022-08-26T14:18:18.751Z,82.84
2022-08-26T14:20:51.104Z,83.15
2022-08-26T14:23:19.087Z,83.20
2022-08-26T14:25:46.928Z,83.76
2022-08-26T14:28:14.808Z,84.00
2022-08-26T14:30:44.326Z,83.72
2022-08-26T14:33:14.200Z,84.84
2022-08-26T14:35:48.059Z,84.19
2022-08-26T14:38:18.607Z,85.03
2022-08-26T14:40:46.647Z,84.91
2022-08-26T14:43:16.133Z,84.60
2022-08-26T14:45:45.606Z,84.68
2022-08-26T14:48:14.061Z,84.33
2022-08-26T14:50:41.893Z,84.61
2022-08-26T14:53:27.427Z,85.11
2022-08-26T14:55:56.707Z,84.87
2022-08-26T14:58:24.483Z,85.56
2022-08-26T15:00:56.772Z,85.36
2022-08-26T15:03:25.108Z,85.64
2022-08-26T15:05:53.459Z,85.25
2022-08-26T15:08:21.691Z,84.02
2022-08-26T15:10:49.641Z,83.83
2022-08-26T15:13:19.220Z,83.93
2022-08-26T15:15:47.230Z,82.50
2022-08-26T15:18:15.143Z,82.54
2022-08-26T15:20:42.952Z,82.88
2022-08-26T15:23:11.292Z,81.14
2022-08-26T15:25:39.675Z,81.16
2022-08-26T15:28:07.548Z,80.36
2022-08-26T15:30:37.484Z,81.50
2022-08-26T15:33:05.651Z,80.12
2022-08-26T15:35:43.496Z,79.83
2022-08-26T15:38:12.533Z,79.42
2022-08-26T15:40:40.590Z,79.81
2022-08-26T15:43:25.703Z,79.77
2022-08-26T15:45:57.763Z,80.07
2022-08-26T15:48:26.199Z,79.89
2022-08-26T15:50:56.352Z,79.70
2022-08-26T15:53:25.067Z,79.01
2022-08-26T15:55:56.343Z,78.84
2022-08-26T15:58:27.000Z,78.24
2022-08-26T16:00:57.174Z,79.16
2022-08-26T16:03:25.055Z,78.39
2022-08-26T16:05:53.412Z,79.21
2022-08-26T16:08:22.428Z,79.41
2022-08-26T16:10:51.298Z,78.42
2022-08-26T16:13:20.982Z,79.18
2022-08-26T16:15:49.391Z,78.60
2022-08-26T16:18:20.255Z,78.39
2022-08-26T16:21:12.558Z,79.70
2022-08-26T16:23:45.098Z,78.98
2022-08-26T16:26:15.481Z,78.64
2022-08-26T16:28:43.765Z,78.62
2022-08-26T16:31:12.131Z,79.47
2022-08-26T16:33:41.596Z,78.26
2022-08-26T16:36:10.248Z,77.90
2022-08-26T16:38:39.633Z,78.40
2022-08-26T16:41:08.142Z,77.56
2022-08-26T16:43:36.750Z,77.84
2022-08-26T16:46:06.933Z,78.01
2022-08-26T16:48:34.884Z,78.74
2022-08-26T16:51:04.334Z,78.52
2022-08-26T16:53:33.547Z,78.46
2022-08-26T16:56:01.332Z,78.98
2022-08-26T16:58:29.489Z,78.59
2022-08-26T17:00:57.578Z,78.68
2022-08-26T17:03:25.470Z,78.67
2022-08-26T17:05:53.256Z,78.53
2022-08-26T17:08:28.407Z,78.75
2022-08-26T17:10:56.565Z,78.16
2022-08-26T17:13:35.229Z,78.15
2022-08-26T17:16:05.149Z,77.73
2022-08-26T17:18:33.840Z,78.44
2022-08-26T17:21:03.115Z,78.73
2022-08-26T17:23:32.812Z,77.95
2022-08-26T17:26:00.656Z,78.57
2022-08-26T17:28:28.529Z,78.15
2022-08-26T17:30:57.170Z,78.49
2022-08-26T17:33:25.358Z,78.04
2022-08-26T17:35:54.116Z,78.54
2022-08-26T17:38:22.839Z,78.95
2022-08-26T17:40:52.539Z,78.73
2022-08-26T17:43:20.635Z,78.48
2022-08-26T17:45:48.584Z,78.08
2022-08-26T17:48:17.188Z,77.97
2022-08-26T17:50:45.551Z,78.38
2022-08-26T17:53:18.846Z,78.73
2022-08-26T17:55:47.452Z,79.36
2022-08-26T17:58:18.555Z,79.41
2022-08-26T18:00:48.148Z,79.74
2022-08-26T18:03:16.618Z,80.31
2022-08-26T18:05:48.616Z,79.56
2022-08-26T18:08:16.568Z,80.25
2022-08-26T18:10:45.239Z,81.55
2022-08-26T18:13:14.704Z,81.38
2022-08-26T18:15:45.465Z,82.39
2022-08-26T18:18:14.259Z,81.20
2022-08-26T18:20:45.443Z,81.01
2022-08-26T18:23:14.059Z,80.57
2022-08-26T18:25:42.311Z,81.42
2022-08-26T18:28:10.770Z,82.31
2022-08-26T18:30:39.010Z,81.21
2022-08-26T18:33:08.219Z,81.65
2022-08-26T18:35:39.839Z,81.21
2022-08-26T18:38:11.713Z,81.57
2022-08-26T18:40:41.206Z,81.76
2022-08-26T18:43:09.076Z,81.23
2022-08-26T18:45:36.960Z,80.71
2022-08-26T18:48:05.708Z,81.17
2022-08-26T18:50:38.360Z,81.47
2022-08-26T18:53:06.597Z,82.10
2022-08-26T18:55:34.564Z,81.79
2022-08-26T18:58:02.471Z,82.60
2022-08-26T19:00:31.513Z,82.60
2022-08-26T19:02:59.395Z,82.49
2022-08-26T19:05:28.458Z,81.60
2022-08-26T19:07:57.746Z,82.39
2022-08-26T19:10:25.622Z,83.22
2022-08-26T19:12:55.365Z,82.76
2022-08-26T19:15:26.558Z,82.11
2022-08-26T19:17:54.477Z,82.07
2022-08-26T19:20:22.738Z,82.36
2022-08-26T19:22:50.572Z,82.27
2022-08-26T19:25:20.183Z,81.65
2022-08-26T19:27:48.523Z,81.84
2022-08-26T19:30:16.276Z,82.09
2022-08-26T19:32:44.206Z,81.71
2022-08-26T19:35:11.987Z,82.40
2022-08-26T19:37:40.000Z,82.36
2022-08-26T19:40:08.769Z,82.60
2022-08-26T19:42:37.926Z,82.59
2022-08-26T19:45:20.199Z,82.84
2022-08-26T19:47:53.466Z,82.93
2022-08-26T19:50:21.540Z,83.93
2022-08-26T19:52:49.741Z,84.39
2022-08-26T19:55:19.058Z,83.56
2022-08-26T19:57:48.247Z,84.35
2022-08-26T20:00:19.266Z,84.02
2022-08-26T20:02:47.236Z,83.36
2022-08-26T20:05:16.866Z,83.27
2022-08-26T20:07:44.640Z,83.56
2022-08-26T20:10:13.992Z,83.43
2022-08-26T20:12:42.594Z,82.67
2022-08-26T20:15:13.709Z,83.08
2022-08-26T20:17:42.288Z,83.07
2022-08-26T20:20:33.768Z,82.62
2022-08-26T20:23:03.507Z,82.66
2022-08-26T20:25:33.531Z,82.71
2022-08-26T20:28:01.861Z,82.45
2022-08-26T20:30:31.159Z,81.92
2022-08-26T20:32:58.923Z,82.02
2022-08-26T20:35:27.396Z,82.16
2022-08-26T20:37:55.218Z,81.72
2022-08-26T20:40:23.126Z,81.55
2022-08-26T20:42:51.296Z,81.77
2022-08-26T20:45:19.222Z,81.61
2022-08-26T20:47:48.377Z,81.40
2022-08-26T20:50:16.172Z,81.04
2022-08-26T20:52:43.919Z,80.72
2022-08-26T20:55:11.906Z,81.41
2022-08-26T20:57:43.160Z,81.15
2022-08-26T21:00:13.281Z,81.19
2022-08-26T21:02:41.979Z,81.17
2022-08-26T21:05:11.317Z,81.73
2022-08-26T21:07:39.377Z,82.37
2022-08-26T21:10:08.228Z,82.19
2022-08-26T21:12:36.711Z,82.58
2022-08-26T21:15:05.756Z,82.92
2022-08-26T21:17:34.321Z,82.83
2022-08-26T21:20:02.143Z,82.74
2022-08-26T21:22:31.574Z,83.30
2022-08-26T21:24:59.405Z,83.45
2022-08-26T21:27:27.173Z,83.69
2022-08-26T21:29:56.175Z,83.83
2022-08-26T21:32:24.029Z,84.11
2022-08-26T21:34:55.493Z,84.59
2022-08-26T21:37:23.908Z,84.62
2022-08-26T21:39:56.125Z,85.03
2022-08-26T21:42:25.185Z,84.91
2022-08-26T21:44:53.284Z,85.36
2022-08-26T21:47:21.138Z,85.31
2022-08-26T21:49:49.020Z,85.04
2022-08-26T21:52:16.880Z,85.14
2022-08-26T21:54:49.337Z,85.04
2022-08-26T21:57:19.299Z,84.22
2022-08-26T21:59:47.285Z,83.95
2022-08-26T22:02:15.652Z,83.60
2022-08-26T22:04:48.134Z,84.12
2022-08-26T22:07:19.033Z,84.11
2022-08-26T22:09:47.215Z,84.18
2022-08-26T22:12:18.003Z,84.21
2022-08-26T22:14:47.841Z,84.09
2022-08-26T22:17:16.977Z,84.29
2022-08-26T22:19:46.391Z,84.52
2022-08-26T22:22:15.290Z,86.50
2022-08-26T22:24:43.935Z,86.14
2022-08-26T22:27:12.102Z,86.23
2022-08-26T22:29:40.068Z,86.21
2022-08-26T22:32:09.336Z,86.40
2022-08-26T22:34:37.175Z,86.07
2022-08-26T22:37:05.274Z,86.53
2022-08-26T22:39:33.615Z,86.76
2022-08-26T22:42:01.628Z,87.06
2022-08-26T22:44:29.424Z,87.57
2022-08-26T22:46:57.243Z,88.61
2022-08-26T22:49:26.443Z,89.22
2022-08-26T22:51:54.436Z,89.27
2022-08-26T22:54:22.224Z,89.57
2022-08-26T22:56:50.078Z,89.81
2022-08-26T22:59:18.028Z,89.65
2022-08-26T23:01:47.219Z,89.56
2022-08-26T23:04:15.059Z,90.01
2022-08-26T23:06:47.519Z,89.73
2022-08-26T23:09:17.841Z,90.01
2022-08-26T23:11:47.329Z,90.62
2022-08-26T23:14:15.767Z,90.48
2022-08-26T23:16:43.980Z,90.75
2022-08-26T23:19:13.601Z,90.38
2022-08-26T23:21:41.984Z,90.48
2022-08-26T23:24:12.017Z,90.85
2022-08-26T23:26:40.950Z,92.12
2022-08-26T23:29:10.702Z,93.09
2022-08-26T23:31:39.187Z,94.03
2022-08-26T23:34:25.445Z,93.87
2022-08-26T23:36:53.857Z,94.16
2022-08-26T23:39:23.046Z,94.46
2022-08-26T23:41:50.811Z,94.57
2022-08-26T23:44:19.592Z,95.00
2022-08-26T23:46:47.868Z,95.58
2022-08-26T23:49:15.642Z,95.30
2022-08-26T23:52:00.799Z,95.47
2022-08-26T23:54:31.511Z,94.85
2022-08-26T23:56:59.386Z,94.95
2022-08-26T23:59:27.239Z,95.35
